createdAt,value
2018-12-25T00:03:27.997Z,101619.45
2018-12-25T00:08:36.293Z,101609.33
2018-12-25T00:13:42.815Z,101617.42
2018-12-25T00:18:48.015Z,101609.75
2018-12-25T00:23:53.731Z,101610.06
2018-12-25T00:28:58.932Z,101607.33
2018-12-25T00:34:06.488Z,101613.98
2018-12-25T00:39:11.654Z,101616.61
2018-12-25T00:44:27.295Z,101605.28
2018-12-25T00:49:32.275Z,101612.98
2018-12-25T00:54:37.500Z,101617.92
2018-12-25T00:59:42.603Z,101625.91
2018-12-25T01:04:51.189Z,101637.20
2018-12-25T01:09:56.323Z,101637.20
2018-12-25T01:15:06.573Z,101639.62
2018-12-25T01:20:13.068Z,101646.18
2018-12-25T01:25:18.257Z,101648.24
2018-12-25T01:30:23.427Z,101656.95
2018-12-25T01:35:28.619Z,101660.17
2018-12-25T01:40:35.672Z,101673.72
2018-12-25T01:45:40.949Z,101680.50
2018-12-25T01:50:46.091Z,101684.75
2018-12-25T01:55:51.364Z,101673.31
2018-12-25T02:00:56.561Z,101671.11
2018-12-25T02:06:01.881Z,101668.17
2018-12-25T02:11:07.122Z,101671.52
2018-12-25T02:16:12.326Z,101674.95
2018-12-25T02:21:17.372Z,101677.16
2018-12-25T02:26:22.588Z,101668.27
2018-12-25T02:31:27.960Z,101672.62
2018-12-25T02:36:33.159Z,101663.04
2018-12-25T02:41:38.756Z,101653.25
2018-12-25T02:46:44.637Z,101648.33
2018-12-25T02:51:49.790Z,101648.42
2018-12-25T02:56:55.105Z,101632.16
2018-12-25T03:02:00.345Z,101629.33
2018-12-25T03:07:05.765Z,101628.73
2018-12-25T03:12:11.637Z,101622.06
2018-12-25T03:17:18.034Z,101620.97
2018-12-25T03:22:25.424Z,101628.53
2018-12-25T03:27:31.903Z,101621.07
2018-12-25T03:32:37.354Z,101615.72
2018-12-25T03:37:42.509Z,101624.32
2018-12-25T03:42:47.959Z,101613.40
2018-12-25T03:47:58.733Z,101609.45
2018-12-25T03:53:03.894Z,101605.30
2018-12-25T03:58:10.429Z,101605.83
2018-12-25T04:03:15.756Z,101617.75
2018-12-25T04:08:20.936Z,101621.48
2018-12-25T04:13:26.939Z,101624.91
2018-12-25T04:18:32.173Z,101623.80
2018-12-25T04:23:37.767Z,101627.64
2018-12-25T04:28:43.275Z,101623.91
2018-12-25T04:33:48.707Z,101624.91
2018-12-25T04:38:54.225Z,101627.95
2018-12-25T04:43:59.355Z,101622.59
2018-12-25T04:49:05.454Z,101620.77
2018-12-25T04:54:10.875Z,101614.20
2018-12-25T04:59:16.193Z,101613.40
2018-12-25T05:04:27.076Z,101607.73
2018-12-25T05:09:32.239Z,101614.71
2018-12-25T05:14:37.423Z,101611.19
2018-12-25T05:19:42.641Z,101609.56
2018-12-25T05:24:47.875Z,101615.23
2018-12-25T05:29:53.407Z,101628.95
2018-12-25T05:34:58.538Z,101639.67
2018-12-25T05:40:03.901Z,101646.13
2018-12-25T05:45:09.078Z,101632.09
2018-12-25T05:50:16.952Z,101634.73
2018-12-25T05:55:22.614Z,101623.08
2018-12-25T06:00:27.833Z,101616.72
2018-12-25T06:05:33.088Z,101615.50
2018-12-25T06:10:38.358Z,101608.14
2018-12-25T06:15:56.655Z,101605.63
2018-12-25T06:21:02.957Z,101612.08
2018-12-25T06:26:08.561Z,101603.09
2018-12-25T06:31:14.016Z,101575.91
2018-12-25T06:36:23.139Z,101594.30
2018-12-25T06:41:28.514Z,101589.95
2018-12-25T06:46:34.073Z,101597.14
2018-12-25T06:51:42.678Z,101590.98
2018-12-25T06:56:51.237Z,101599.87
2018-12-25T07:01:59.788Z,101600.45
2018-12-25T07:07:05.382Z,101590.88
2018-12-25T07:12:11.078Z,101584.09
2018-12-25T07:17:17.244Z,101588.83
2018-12-25T07:22:22.330Z,101587.72
2018-12-25T07:27:27.566Z,101590.77
2018-12-25T07:32:32.757Z,101591.97
2018-12-25T07:37:37.885Z,101589.45
2018-12-25T07:42:42.977Z,101581.14
2018-12-25T07:47:50.543Z,101571.74
2018-12-25T07:52:55.725Z,101577.62
2018-12-25T07:58:00.915Z,101566.99
2018-12-25T08:03:06.173Z,101554.73
2018-12-25T08:08:12.586Z,101566.67
2018-12-25T08:13:17.927Z,101565.77
2018-12-25T08:18:23.221Z,101566.69
2018-12-25T08:23:29.995Z,101573.65
2018-12-25T08:28:35.265Z,101588.72
2018-12-25T08:33:41.703Z,101565.16
2018-12-25T08:38:47.261Z,101575.16
2018-12-25T08:43:52.795Z,101589.42
2018-12-25T08:48:57.965Z,101593.34
2018-12-25T08:54:05.043Z,101576.45
2018-12-25T08:59:10.263Z,101587.69
2018-12-25T09:04:15.651Z,101570.17
2018-12-25T09:09:20.831Z,101575.27
2018-12-25T09:14:26.640Z,101569.54
2018-12-25T09:19:31.766Z,101570.16
2018-12-25T09:24:37.033Z,101591.90
2018-12-25T09:29:44.159Z,101593.80
2018-12-25T09:34:52.348Z,101611.89
2018-12-25T09:39:57.566Z,101605.19
2018-12-25T09:45:02.583Z,101594.98
2018-12-25T09:50:08.133Z,101597.09
2018-12-25T09:55:13.644Z,101610.02
2018-12-25T10:00:19.129Z,101604.05
2018-12-25T10:05:24.390Z,101597.03
2018-12-25T10:10:35.397Z,101599.97
2018-12-25T10:15:40.838Z,101590.05
2018-12-25T10:20:46.069Z,101596.70
2018-12-25T10:25:51.639Z,101595.50
2018-12-25T10:30:56.917Z,101588.95
2018-12-25T10:36:02.441Z,101586.29
2018-12-25T10:41:07.826Z,101585.42
2018-12-25T10:46:12.929Z,101580.52
2018-12-25T10:51:18.617Z,101582.84
2018-12-25T10:56:24.141Z,101585.03
2018-12-25T11:01:34.157Z,101582.45
2018-12-25T11:06:39.452Z,101569.41
2018-12-25T11:11:44.811Z,101570.32
2018-12-25T11:16:55.212Z,101567.11
2018-12-25T11:22:00.371Z,101558.42
2018-12-25T11:27:05.393Z,101539.67
2018-12-25T11:32:10.769Z,101532.57
2018-12-25T11:37:16.260Z,101531.56
2018-12-25T11:42:21.393Z,101541.23
2018-12-25T11:47:26.745Z,101552.52
2018-12-25T11:52:31.887Z,101550.16
2018-12-25T11:57:37.095Z,101558.91
2018-12-25T12:02:42.168Z,101551.96
2018-12-25T12:07:47.341Z,101558.83
2018-12-25T12:12:52.591Z,101556.94
2018-12-25T12:17:58.003Z,101558.63
2018-12-25T12:23:04.287Z,101548.42
2018-12-25T12:28:14.478Z,101552.84
2018-12-25T12:33:19.689Z,101552.98
2018-12-25T12:38:24.918Z,101555.83
2018-12-25T12:43:30.105Z,101560.80
2018-12-25T12:48:35.455Z,101572.85
2018-12-25T12:53:40.615Z,101566.54
2018-12-25T12:58:46.087Z,101566.63
2018-12-25T13:03:51.162Z,101577.25
2018-12-25T13:08:56.425Z,101579.75
2018-12-25T13:14:02.683Z,101579.75
2018-12-25T13:19:10.704Z,101582.88
2018-12-25T13:24:16.614Z,101586.87
2018-12-25T13:29:23.135Z,101591.67
2018-12-25T13:34:28.327Z,101588.59
2018-12-25T13:39:33.781Z,101596.75
2018-12-25T13:44:39.401Z,101602.41
2018-12-25T13:49:44.664Z,101604.57
2018-12-25T13:54:49.876Z,101595.19
2018-12-25T13:59:56.040Z,101598.48
2018-12-25T14:05:01.709Z,101602.98
2018-12-25T14:10:07.823Z,101603.77
2018-12-25T14:15:14.239Z,101612.92
2018-12-25T14:20:20.614Z,101602.59
2018-12-25T14:25:26.861Z,101606.55
2018-12-25T14:30:32.036Z,101600.10
2018-12-25T14:35:37.185Z,101592.47
2018-12-25T14:40:42.667Z,101599.06
2018-12-25T14:45:51.090Z,101599.94
2018-12-25T14:50:56.259Z,101599.63
2018-12-25T14:56:01.361Z,101598.23
2018-12-25T15:01:07.981Z,101605.31
2018-12-25T15:06:13.446Z,101601.36
2018-12-25T15:11:18.533Z,101592.55
2018-12-25T15:16:23.886Z,101590.34
2018-12-25T15:21:29.030Z,101595.63
2018-12-25T15:26:34.157Z,101594.69
2018-12-25T15:31:39.369Z,101600.23
2018-12-25T15:36:49.402Z,101596.48
2018-12-25T15:41:54.457Z,101597.95
2018-12-25T15:46:59.687Z,101596.94
2018-12-25T15:52:05.550Z,101598.04
2018-12-25T15:57:13.109Z,101592.84
2018-12-25T16:02:18.343Z,101592.19
2018-12-25T16:07:23.809Z,101603.61
2018-12-25T16:12:28.983Z,101607.56
2018-12-25T16:17:34.100Z,101599.71
2018-12-25T16:22:39.401Z,101598.48
2018-12-25T16:27:44.614Z,101603.09
2018-12-25T16:32:49.816Z,101614.23
2018-12-25T16:37:55.094Z,101618.90
2018-12-25T16:43:00.643Z,101612.23
2018-12-25T16:48:05.896Z,101610.99
2018-12-25T16:53:11.055Z,101620.52
2018-12-25T16:58:16.268Z,101632.91
2018-12-25T17:03:21.358Z,101625.22
2018-12-25T17:08:26.473Z,101631.81
2018-12-25T17:13:31.638Z,101625.49
2018-12-25T17:18:36.997Z,101629.09
2018-12-25T17:23:42.226Z,101628.87
2018-12-25T17:28:47.358Z,101625.49
2018-12-25T17:33:52.627Z,101624.61
2018-12-25T17:38:58.276Z,101624.44
2018-12-25T17:44:03.522Z,101625.13
2018-12-25T17:49:09.492Z,101618.02
2018-12-25T17:54:14.585Z,101624.36
2018-12-25T17:59:19.728Z,101626.77
2018-12-25T18:04:25.954Z,101631.33
2018-12-25T18:09:31.220Z,101643.68
2018-12-25T18:14:36.849Z,101648.07
2018-12-25T18:19:42.155Z,101639.64
2018-12-25T18:24:47.251Z,101628.62
2018-12-25T18:29:52.388Z,101635.70
2018-12-25T18:34:57.564Z,101638.31
2018-12-25T18:40:02.712Z,101641.05
2018-12-25T18:45:12.904Z,101651.41
2018-12-25T18:50:17.982Z,101646.53
2018-12-25T18:55:23.110Z,101640.69
2018-12-25T19:00:28.021Z,101645.22
2018-12-25T19:05:33.271Z,101648.59
2018-12-25T19:10:39.149Z,101644.73
2018-12-25T19:15:46.247Z,101645.39
2018-12-25T19:20:51.466Z,101641.27
2018-12-25T19:25:56.691Z,101650.44
2018-12-25T19:31:04.788Z,101631.59
2018-12-25T19:36:15.046Z,101635.99
2018-12-25T19:41:20.553Z,101630.87
2018-12-25T19:46:26.042Z,101627.97
2018-12-25T19:51:31.956Z,101619.41
2018-12-25T19:56:37.080Z,101614.32
2018-12-25T20:01:42.298Z,101612.52
2018-12-25T20:07:34.391Z,101606.37
2018-12-25T20:13:28.268Z,101599.27
2018-12-25T20:19:02.410Z,101615.86
2018-12-25T20:25:04.717Z,101602.38
2018-12-25T20:30:41.692Z,101603.08
2018-12-25T20:36:42.326Z,101593.20
2018-12-25T20:42:15.386Z,101588.20
2018-12-25T20:48:19.551Z,101595.92
2018-12-25T20:54:19.746Z,101590.34
2018-12-25T21:00:01.145Z,101588.41
2018-12-25T21:05:42.335Z,101586.53
2018-12-25T21:11:40.048Z,101587.09
2018-12-25T21:17:24.434Z,101581.03
2018-12-25T21:23:07.433Z,101572.55
2018-12-25T21:28:11.025Z,101564.42
2018-12-25T21:33:17.112Z,101569.88
2018-12-25T21:38:26.050Z,101567.16
2018-12-25T21:43:31.505Z,101570.14
2018-12-25T21:48:37.227Z,101556.31
2018-12-25T21:53:42.259Z,101554.06
2018-12-25T21:58:47.479Z,101555.56
2018-12-25T22:03:53.518Z,101561.88
2018-12-25T22:08:58.590Z,101562.08
2018-12-25T22:14:03.722Z,101567.70
2018-12-25T22:19:09.056Z,101564.95
2018-12-25T22:24:14.550Z,101564.63
2018-12-25T22:29:19.848Z,101553.20
2018-12-25T22:34:38.123Z,101554.30
2018-12-25T22:39:43.401Z,101546.95
2018-12-25T22:44:48.588Z,101544.97
2018-12-25T22:49:54.222Z,101544.86
2018-12-25T22:54:59.941Z,101542.55
2018-12-25T23:00:06.862Z,101542.17
2018-12-25T23:05:13.570Z,101530.01
2018-12-25T23:10:19.152Z,101536.48
2018-12-25T23:15:25.156Z,101530.02
2018-12-25T23:20:30.756Z,101526.58
2018-12-25T23:25:44.409Z,101509.59
2018-12-25T23:30:42.776Z,101507.45
2018-12-25T23:35:48.777Z,101505.48
2018-12-25T23:40:54.715Z,101499.62
2018-12-25T23:46:00.067Z,101493.48
2018-12-25T23:51:05.192Z,101495.81
2018-12-25T23:56:10.264Z,101497.98
